KBWD/BWD METAR and TAF weather

Enter ICAO airport designator
Station Type Date Time Source
KBWD METAR 2019/08/19 22:15 UTC NOAA

KBWD 192215Z AUTO 11009KT 070V130 10SM CLR 38/17 A2993 RMK AO1


Station Type Date Time Source
KBWD Decoded METAR 2019/08/19 22:15 UTC NOAA

Brownwood, Brownwood Regional Airport, TX, United States (KBWD) 31-48N 098-57W
Aug 19, 2019 - 06:15 PM EDT / 2019.08.19 2215 UTC
Wind: from the ESE (110 degrees) at 10 MPH (9 KT) (direction variable):0
Visibility: 10 mile(s):0
Sky conditions: clear
Temperature: 100 F (38 C)
Heat index: 101.7 F (38.7 C):1
Dew Point: 62 F (17 C)
Relative Humidity: 29%
Pressure (altimeter): 29.93 in. Hg (1013 hPa)
ob: KBWD 192215Z AUTO 11009KT 070V130 10SM CLR 38/17 A2993 RMK AO1
cycle: 22

Station Type Date Time Source
KBWD TAF UTC NOAA

Error!

Example: see airport list